createdAt,value
2018-11-06T00:00:48.993Z,94.78
2018-11-06T00:03:24.095Z,94.14
2018-11-06T00:05:53.163Z,94.72
2018-11-06T00:08:21.830Z,93.59
2018-11-06T00:10:50.976Z,93.45
2018-11-06T00:13:20.175Z,94.46
2018-11-06T00:15:49.471Z,95.79
2018-11-06T00:18:19.118Z,94.93
2018-11-06T00:20:47.711Z,94.19
2018-11-06T00:23:16.868Z,95.52
2018-11-06T00:25:45.481Z,96.42
2018-11-06T00:28:14.034Z,94.15
2018-11-06T00:30:42.650Z,95.50
2018-11-06T00:33:11.243Z,95.67
2018-11-06T00:35:39.616Z,95.71
2018-11-06T00:38:08.396Z,95.55
2018-11-06T00:40:36.832Z,95.42
2018-11-06T00:43:05.314Z,95.54
2018-11-06T00:45:34.250Z,95.11
2018-11-06T00:48:02.981Z,95.67
2018-11-06T00:50:31.828Z,95.89
2018-11-06T00:53:00.602Z,95.87
2018-11-06T00:55:28.998Z,95.42
2018-11-06T00:57:57.439Z,95.17
2018-11-06T01:00:26.128Z,95.30
2018-11-06T01:02:55.575Z,95.48
2018-11-06T01:05:24.899Z,95.89
2018-11-06T01:07:53.551Z,95.54
2018-11-06T01:10:21.959Z,95.05
2018-11-06T01:12:51.065Z,94.89
2018-11-06T01:15:19.501Z,96.42
2018-11-06T01:17:48.172Z,97.45
2018-11-06T01:20:17.765Z,96.37
2018-11-06T01:22:46.707Z,96.67
2018-11-06T01:25:15.635Z,96.88
2018-11-06T01:27:44.734Z,97.10
2018-11-06T01:30:17.307Z,97.38
2018-11-06T01:32:46.130Z,96.78
2018-11-06T01:35:15.641Z,96.48
2018-11-06T01:37:45.167Z,96.41
2018-11-06T01:40:15.823Z,95.62
2018-11-06T01:42:45.076Z,95.78
2018-11-06T01:45:14.812Z,96.41
2018-11-06T01:47:43.147Z,96.18
2018-11-06T01:50:16.108Z,96.61
2018-11-06T01:52:47.865Z,95.93
2018-11-06T01:55:18.586Z,96.11
2018-11-06T01:57:53.057Z,95.12
2018-11-06T02:00:24.129Z,95.02
2018-11-06T02:02:54.560Z,94.86
2018-11-06T02:05:26.472Z,95.60
2018-11-06T02:07:55.313Z,96.08
2018-11-06T02:10:23.759Z,95.69
2018-11-06T02:12:52.239Z,96.06
2018-11-06T02:15:21.023Z,96.72
2018-11-06T02:17:49.797Z,96.76
2018-11-06T02:20:18.295Z,96.97
2018-11-06T02:22:47.807Z,96.27
2018-11-06T02:25:16.303Z,95.74
2018-11-06T02:27:45.323Z,94.48
2018-11-06T02:30:15.804Z,94.52
2018-11-06T02:32:45.280Z,94.13
2018-11-06T02:35:14.455Z,93.74
2018-11-06T02:37:43.549Z,93.85
2018-11-06T02:40:14.147Z,94.04
2018-11-06T02:42:43.486Z,93.94
2018-11-06T02:45:12.836Z,93.72
2018-11-06T02:47:41.815Z,93.45
2018-11-06T02:50:11.737Z,93.80
2018-11-06T02:52:40.581Z,94.43
2018-11-06T02:55:09.415Z,94.39
2018-11-06T02:57:37.903Z,94.15
2018-11-06T03:00:09.615Z,94.05
2018-11-06T03:02:38.114Z,93.04
2018-11-06T03:05:07.688Z,93.51
2018-11-06T03:07:37.204Z,93.78
2018-11-06T03:10:06.787Z,92.74
2018-11-06T03:12:35.320Z,90.57
2018-11-06T03:15:04.527Z,91.79
2018-11-06T03:17:32.972Z,93.93
2018-11-06T03:20:02.588Z,93.19
2018-11-06T03:22:33.838Z,93.46
2018-11-06T03:25:02.534Z,94.63
2018-11-06T03:27:31.056Z,95.56
2018-11-06T03:30:08.499Z,95.15
2018-11-06T03:32:37.196Z,95.93
2018-11-06T03:35:07.465Z,95.88
2018-11-06T03:37:36.390Z,96.91
2018-11-06T03:40:05.667Z,96.39
2018-11-06T03:42:34.599Z,96.54
2018-11-06T03:45:04.163Z,96.99
2018-11-06T03:47:32.541Z,97.74
2018-11-06T03:50:01.640Z,96.88
2018-11-06T03:52:30.492Z,96.37
2018-11-06T03:54:59.007Z,95.77
2018-11-06T03:57:27.752Z,94.40
2018-11-06T03:59:56.189Z,94.70
2018-11-06T04:02:25.255Z,95.64
2018-11-06T04:04:54.545Z,95.94
2018-11-06T04:07:22.979Z,96.36
2018-11-06T04:09:51.620Z,96.65
2018-11-06T04:12:20.093Z,96.84
2018-11-06T04:14:48.578Z,97.00
2018-11-06T04:17:19.619Z,97.09
2018-11-06T04:19:48.172Z,96.62
2018-11-06T04:22:17.423Z,96.19
2018-11-06T04:24:45.798Z,96.09
2018-11-06T04:27:14.284Z,96.27
2018-11-06T04:29:42.716Z,95.82
2018-11-06T04:32:11.155Z,96.90
2018-11-06T04:34:39.561Z,95.50
2018-11-06T04:37:07.935Z,95.62
2018-11-06T04:39:36.811Z,95.40
2018-11-06T04:42:05.556Z,93.76
2018-11-06T04:44:33.973Z,94.39
2018-11-06T04:47:03.508Z,94.46
2018-11-06T04:49:33.103Z,94.43
2018-11-06T04:52:01.474Z,95.37
2018-11-06T04:54:30.877Z,95.53
2018-11-06T04:56:59.486Z,95.65
2018-11-06T04:59:27.939Z,95.60
2018-11-06T05:01:56.449Z,95.16
2018-11-06T05:04:24.848Z,95.21
2018-11-06T05:06:53.230Z,95.29
2018-11-06T05:09:22.885Z,95.01
2018-11-06T05:11:51.284Z,95.78
2018-11-06T05:14:20.014Z,95.05
2018-11-06T05:16:48.686Z,95.64
2018-11-06T05:19:17.061Z,96.17
2018-11-06T05:21:45.939Z,95.84
2018-11-06T05:24:14.903Z,95.45
2018-11-06T05:26:44.303Z,95.92
2018-11-06T05:29:13.295Z,96.56
2018-11-06T05:31:41.671Z,95.76
2018-11-06T05:34:10.050Z,96.31
2018-11-06T05:36:38.511Z,96.40
2018-11-06T05:39:10.042Z,96.79
2018-11-06T05:41:38.724Z,97.13
2018-11-06T05:44:07.185Z,95.60
2018-11-06T05:46:35.633Z,94.72
2018-11-06T05:51:43.344Z,94.83
2018-11-06T05:54:12.327Z,95.46
2018-11-06T05:56:40.708Z,93.53
2018-11-06T05:59:09.630Z,93.75
2018-11-06T06:01:37.990Z,93.80
2018-11-06T06:04:07.298Z,92.79
2018-11-06T06:06:35.724Z,93.20
2018-11-06T06:09:06.627Z,92.94
2018-11-06T06:11:35.067Z,93.93
2018-11-06T06:14:03.465Z,95.22
2018-11-06T06:16:31.895Z,95.30
2018-11-06T06:19:00.344Z,95.18
2018-11-06T06:21:29.674Z,94.63
2018-11-06T06:23:58.440Z,96.60
2018-11-06T06:26:27.382Z,95.05
2018-11-06T06:28:57.642Z,93.91
2018-11-06T06:31:28.989Z,94.23
2018-11-06T06:34:01.313Z,93.87
2018-11-06T06:36:32.542Z,92.95
2018-11-06T06:39:03.890Z,94.31
2018-11-06T06:41:34.511Z,94.66
2018-11-06T06:44:05.459Z,94.02
2018-11-06T06:46:36.087Z,92.50
2018-11-06T06:49:06.940Z,91.07
2018-11-06T06:51:37.345Z,91.45
2018-11-06T06:54:08.377Z,91.22
2018-11-06T06:56:39.916Z,92.50
2018-11-06T06:59:09.617Z,92.70
2018-11-06T07:01:40.509Z,91.94
2018-11-06T07:04:11.022Z,90.54
2018-11-06T07:06:41.416Z,88.88
2018-11-06T07:09:12.157Z,88.17
2018-11-06T07:11:42.568Z,90.45
2018-11-06T07:14:13.992Z,89.44
2018-11-06T07:16:44.674Z,89.08
2018-11-06T07:19:15.076Z,89.39
2018-11-06T07:21:46.357Z,88.90
2018-11-06T07:24:16.921Z,87.33
2018-11-06T07:26:47.325Z,88.53
2018-11-06T07:29:17.809Z,88.35
2018-11-06T07:31:48.218Z,85.13
2018-11-06T07:34:19.372Z,86.08
2018-11-06T07:36:49.540Z,85.32
2018-11-06T07:39:20.320Z,85.16
2018-11-06T07:41:50.788Z,82.59
2018-11-06T07:44:22.121Z,83.59
2018-11-06T07:46:52.209Z,85.64
2018-11-06T07:49:22.524Z,86.18
2018-11-06T07:51:52.413Z,85.68
2018-11-06T07:54:22.750Z,85.49
2018-11-06T07:56:52.725Z,83.60
2018-11-06T07:59:23.387Z,83.61
2018-11-06T08:01:54.822Z,81.62
2018-11-06T08:04:25.687Z,80.62
2018-11-06T08:06:56.795Z,79.83
2018-11-06T08:09:27.527Z,81.20
2018-11-06T08:12:12.793Z,80.23
2018-11-06T08:14:43.498Z,79.52
2018-11-06T08:17:14.302Z,78.21
2018-11-06T08:19:44.777Z,78.56
2018-11-06T08:22:15.271Z,76.63
2018-11-06T08:24:46.089Z,75.82
2018-11-06T08:27:16.858Z,75.51
2018-11-06T08:29:47.754Z,73.92
2018-11-06T08:32:19.095Z,75.02
2018-11-06T08:34:49.668Z,74.11
2018-11-06T08:37:20.009Z,75.92
2018-11-06T08:39:50.729Z,76.02
2018-11-06T08:42:20.664Z,75.24
2018-11-06T08:44:51.940Z,75.43
2018-11-06T08:47:22.537Z,75.14
2018-11-06T08:49:52.778Z,75.10
2018-11-06T08:52:25.691Z,73.97
2018-11-06T08:54:56.855Z,73.99
2018-11-06T08:57:27.494Z,74.71
2018-11-06T08:59:58.385Z,73.34
2018-11-06T09:02:28.193Z,72.70
2018-11-06T09:04:59.176Z,72.89
2018-11-06T09:07:29.866Z,71.38
2018-11-06T09:10:00.416Z,72.31
2018-11-06T09:12:32.076Z,73.18
2018-11-06T09:15:02.502Z,73.05
2018-11-06T09:17:34.148Z,73.23
2018-11-06T09:20:04.772Z,73.58
2018-11-06T09:22:35.729Z,72.99
2018-11-06T09:25:08.864Z,71.28
2018-11-06T09:27:39.702Z,72.19
2018-11-06T09:30:13.241Z,71.58
2018-11-06T09:32:46.292Z,71.01
2018-11-06T09:35:19.000Z,71.65
2018-11-06T09:37:50.111Z,70.63
2018-11-06T09:40:21.490Z,70.61
2018-11-06T09:42:53.041Z,70.19
2018-11-06T09:45:23.338Z,69.22
2018-11-06T09:47:54.220Z,68.93
2018-11-06T09:50:33.939Z,69.60
2018-11-06T09:53:05.714Z,68.71
2018-11-06T09:55:40.633Z,68.58
2018-11-06T09:58:12.418Z,68.10
2018-11-06T10:00:44.147Z,68.28
2018-11-06T10:03:15.868Z,66.19
2018-11-06T10:05:47.435Z,66.39
2018-11-06T10:08:19.451Z,66.19
2018-11-06T10:10:50.166Z,66.81
2018-11-06T10:13:20.195Z,65.03
2018-11-06T10:15:50.805Z,64.13
2018-11-06T10:18:21.970Z,64.91
2018-11-06T10:20:52.599Z,66.59
2018-11-06T10:23:23.895Z,65.25
2018-11-06T10:25:55.024Z,65.35
2018-11-06T10:28:26.909Z,67.34
2018-11-06T10:30:58.948Z,64.66
2018-11-06T10:33:30.051Z,65.00
2018-11-06T10:36:01.008Z,65.52
2018-11-06T10:38:31.246Z,64.19
2018-11-06T10:41:01.484Z,65.00
2018-11-06T10:43:31.808Z,64.94
2018-11-06T10:46:02.174Z,64.43
2018-11-06T10:48:36.640Z,65.29
2018-11-06T10:51:07.596Z,64.69
2018-11-06T10:53:37.772Z,62.70
2018-11-06T10:56:08.167Z,63.79
2018-11-06T10:58:38.450Z,63.21
2018-11-06T11:01:13.972Z,62.06
2018-11-06T11:03:49.545Z,62.77
2018-11-06T11:06:20.041Z,63.17
2018-11-06T11:08:50.959Z,60.98
2018-11-06T11:11:21.367Z,59.70
2018-11-06T11:13:51.314Z,61.60
2018-11-06T11:16:22.022Z,60.57
2018-11-06T11:18:52.031Z,60.70
2018-11-06T11:21:22.008Z,58.95
2018-11-06T11:23:52.544Z,59.21
2018-11-06T11:26:22.991Z,59.28
2018-11-06T11:28:54.433Z,59.26
2018-11-06T11:31:25.159Z,59.51
2018-11-06T11:33:56.474Z,59.58
2018-11-06T11:36:26.631Z,58.38
2018-11-06T11:38:56.980Z,58.66
2018-11-06T11:41:28.034Z,57.60
2018-11-06T11:43:59.745Z,56.79
2018-11-06T11:46:30.103Z,55.82
2018-11-06T11:49:02.985Z,55.98
2018-11-06T11:51:33.555Z,55.48
2018-11-06T11:54:06.446Z,55.48
2018-11-06T11:56:37.850Z,55.16
2018-11-06T11:59:09.657Z,54.90
2018-11-06T12:01:40.721Z,53.81
2018-11-06T12:04:11.648Z,53.00
2018-11-06T12:06:42.582Z,52.88
2018-11-06T12:09:14.568Z,53.87
2018-11-06T12:11:46.035Z,54.93
2018-11-06T12:14:17.977Z,54.66
2018-11-06T12:16:48.610Z,54.61
2018-11-06T12:19:19.845Z,54.15
2018-11-06T12:21:51.545Z,54.75
2018-11-06T12:24:23.371Z,54.57
2018-11-06T12:26:55.420Z,54.17
2018-11-06T12:29:27.569Z,54.63
2018-11-06T12:31:58.545Z,52.98
2018-11-06T12:34:29.438Z,52.23
2018-11-06T12:37:00.168Z,51.82
2018-11-06T12:39:32.084Z,52.86
2018-11-06T12:42:03.214Z,53.12
2018-11-06T12:44:34.211Z,53.62
2018-11-06T12:47:04.325Z,51.89
2018-11-06T12:49:34.176Z,51.97
2018-11-06T12:52:04.386Z,52.56
2018-11-06T12:54:34.197Z,50.95
2018-11-06T12:57:03.069Z,51.18
2018-11-06T12:59:31.442Z,51.73
2018-11-06T13:02:05.230Z,49.42
2018-11-06T13:04:51.306Z,48.93
2018-11-06T13:07:40.881Z,48.26
2018-11-06T13:10:15.186Z,49.01
2018-11-06T13:12:47.039Z,48.77
2018-11-06T13:15:19.888Z,49.84
2018-11-06T13:17:50.476Z,49.06
2018-11-06T13:20:22.118Z,49.97
2018-11-06T13:22:53.353Z,52.66
2018-11-06T13:25:25.571Z,52.58
2018-11-06T13:27:56.937Z,51.32
2018-11-06T13:30:28.507Z,51.51
2018-11-06T13:32:59.871Z,51.39
2018-11-06T13:35:30.978Z,52.42
2018-11-06T13:38:02.723Z,53.57
2018-11-06T13:43:47.392Z,53.10
2018-11-06T13:46:33.288Z,52.96
2018-11-06T13:49:24.126Z,53.04
2018-11-06T13:52:13.438Z,53.20
2018-11-06T13:54:56.635Z,53.36
2018-11-06T13:57:32.286Z,52.48
2018-11-06T14:00:05.302Z,54.70
2018-11-06T14:02:36.791Z,53.68
2018-11-06T14:05:08.968Z,53.84
2018-11-06T14:07:41.176Z,52.65
2018-11-06T14:10:12.730Z,51.77
2018-11-06T14:12:45.929Z,52.46
2018-11-06T14:15:18.411Z,53.96
2018-11-06T14:17:52.297Z,54.25
2018-11-06T14:20:24.416Z,52.94
2018-11-06T14:22:56.675Z,53.74
2018-11-06T14:25:29.335Z,54.30
2018-11-06T14:28:01.282Z,54.53
2018-11-06T14:30:34.066Z,53.19
2018-11-06T14:33:06.160Z,52.83
2018-11-06T14:35:38.372Z,53.88
2018-11-06T14:38:10.393Z,56.82
2018-11-06T14:40:42.591Z,57.41
2018-11-06T14:43:15.079Z,57.70
2018-11-06T14:45:48.035Z,56.18
2018-11-06T14:48:21.056Z,57.30
2018-11-06T14:50:53.686Z,57.64
2018-11-06T14:53:24.198Z,60.69
2018-11-06T14:55:54.433Z,60.97
2018-11-06T14:58:25.641Z,62.80
2018-11-06T15:00:57.627Z,62.62
2018-11-06T15:03:29.297Z,61.11
2018-11-06T15:06:00.800Z,61.44
2018-11-06T15:08:32.790Z,62.37
2018-11-06T15:11:03.860Z,63.35
2018-11-06T15:13:38.205Z,65.61
2018-11-06T15:16:10.225Z,64.78
2018-11-06T15:18:44.487Z,65.02
2018-11-06T15:21:20.346Z,65.96
2018-11-06T15:23:52.520Z,66.25
2018-11-06T15:26:23.399Z,65.82
2018-11-06T15:28:54.864Z,66.51
2018-11-06T15:31:25.913Z,68.08
2018-11-06T15:33:57.348Z,68.92
2018-11-06T15:36:28.939Z,68.85
2018-11-06T15:38:57.944Z,69.29
2018-11-06T15:41:28.621Z,69.45
2018-11-06T15:44:01.996Z,71.24
2018-11-06T15:46:33.827Z,71.17
2018-11-06T15:49:05.406Z,69.46
2018-11-06T15:51:37.507Z,70.41
2018-11-06T15:54:09.052Z,72.98
2018-11-06T15:56:41.477Z,73.60
2018-11-06T15:59:12.450Z,72.88
2018-11-06T16:01:43.277Z,72.74
2018-11-06T16:04:15.685Z,73.91
2018-11-06T16:06:47.134Z,73.19
2018-11-06T16:09:19.370Z,74.67
2018-11-06T16:11:51.269Z,74.01
2018-11-06T16:14:23.340Z,74.65
2018-11-06T16:16:53.057Z,74.41
2018-11-06T16:19:24.099Z,74.45
2018-11-06T16:21:54.507Z,74.22
2018-11-06T16:24:25.746Z,74.48
2018-11-06T16:26:55.751Z,74.34
2018-11-06T16:29:25.098Z,74.33
2018-11-06T16:31:56.539Z,74.48
2018-11-06T16:34:28.127Z,75.49
2018-11-06T16:36:56.695Z,76.48
2018-11-06T16:39:26.768Z,75.59
2018-11-06T16:41:55.837Z,74.41
2018-11-06T16:44:28.133Z,73.46
2018-11-06T16:46:59.239Z,73.19
2018-11-06T16:49:27.832Z,73.19
2018-11-06T16:51:57.819Z,72.80
2018-11-06T16:54:27.900Z,72.89
2018-11-06T16:56:57.580Z,72.48
2018-11-06T16:59:26.899Z,72.83
2018-11-06T17:01:57.582Z,71.66
2018-11-06T17:04:28.706Z,72.53
2018-11-06T17:06:59.188Z,71.44
2018-11-06T17:09:27.866Z,72.90
2018-11-06T17:11:57.113Z,74.18
2018-11-06T17:14:27.968Z,74.51
2018-11-06T17:16:57.183Z,74.83
2018-11-06T17:19:26.100Z,74.97
2018-11-06T17:21:54.962Z,74.34
2018-11-06T17:24:24.285Z,74.99
2018-11-06T17:26:53.071Z,75.61
2018-11-06T17:29:23.034Z,74.63
2018-11-06T17:31:51.839Z,75.10
2018-11-06T17:34:20.791Z,76.19
2018-11-06T17:36:49.328Z,76.73
2018-11-06T17:39:18.613Z,76.80
2018-11-06T17:41:47.433Z,76.85
2018-11-06T17:44:16.872Z,77.78
2018-11-06T17:46:45.667Z,77.82
2018-11-06T17:49:14.396Z,78.49
2018-11-06T17:51:43.478Z,78.76
2018-11-06T17:54:12.273Z,79.07
2018-11-06T17:56:40.885Z,78.86
2018-11-06T17:59:09.517Z,78.90
2018-11-06T18:01:38.035Z,79.06
2018-11-06T18:04:06.865Z,78.92
2018-11-06T18:06:35.317Z,79.92
2018-11-06T18:09:06.503Z,80.24
2018-11-06T18:11:36.248Z,80.42
2018-11-06T18:14:05.744Z,80.88
2018-11-06T18:16:35.271Z,81.57
2018-11-06T18:19:03.788Z,80.95
2018-11-06T18:21:32.922Z,80.81
2018-11-06T18:24:02.025Z,81.08
2018-11-06T18:26:32.339Z,81.14
2018-11-06T18:29:01.068Z,81.21
2018-11-06T18:31:29.682Z,81.19
2018-11-06T18:33:58.115Z,80.23
2018-11-06T18:36:27.473Z,80.77
2018-11-06T18:38:55.968Z,81.19
2018-11-06T18:41:24.801Z,81.54
2018-11-06T18:43:53.727Z,81.85
2018-11-06T18:46:22.165Z,82.11
2018-11-06T18:48:50.889Z,81.92
2018-11-06T18:51:19.597Z,81.78
2018-11-06T18:53:48.734Z,82.58
2018-11-06T18:56:17.238Z,82.28
2018-11-06T18:58:45.623Z,82.63
2018-11-06T19:01:15.134Z,82.22
2018-11-06T19:03:43.860Z,82.52
2018-11-06T19:06:12.582Z,82.82
2018-11-06T19:08:41.938Z,82.83
2018-11-06T19:11:11.084Z,82.94
2018-11-06T19:13:40.312Z,82.56
2018-11-06T19:16:09.027Z,82.58
2018-11-06T19:18:38.649Z,82.40
2018-11-06T19:21:07.657Z,83.12
2018-11-06T19:23:36.177Z,83.06
2018-11-06T19:26:05.128Z,83.26
2018-11-06T19:28:33.611Z,83.63
2018-11-06T19:31:02.080Z,82.97
2018-11-06T19:33:30.714Z,83.20
2018-11-06T19:35:59.272Z,84.21
2018-11-06T19:38:28.784Z,84.61
2018-11-06T19:40:57.336Z,84.05
2018-11-06T19:43:32.720Z,84.57
2018-11-06T19:46:01.653Z,84.67
2018-11-06T19:48:31.682Z,84.84
2018-11-06T19:51:00.213Z,84.48
2018-11-06T19:53:30.759Z,84.99
2018-11-06T19:55:59.441Z,85.39
2018-11-06T19:58:28.340Z,85.91
2018-11-06T20:00:57.355Z,85.53
2018-11-06T20:03:28.437Z,85.51
2018-11-06T20:05:57.412Z,85.08
2018-11-06T20:08:26.746Z,85.38
2018-11-06T20:10:56.297Z,85.36
2018-11-06T20:13:24.865Z,85.60
2018-11-06T20:15:54.628Z,85.68
2018-11-06T20:18:23.049Z,86.64
2018-11-06T20:20:52.555Z,86.97
2018-11-06T20:23:21.487Z,85.86
2018-11-06T20:25:50.405Z,85.90
2018-11-06T20:28:22.725Z,87.29
2018-11-06T20:30:51.310Z,86.97
2018-11-06T20:33:20.225Z,86.99
2018-11-06T20:35:49.846Z,86.49
2018-11-06T20:38:18.404Z,87.30
2018-11-06T20:40:46.792Z,87.19
2018-11-06T20:43:15.301Z,87.22
2018-11-06T20:45:43.726Z,87.27
2018-11-06T20:48:12.238Z,87.67
2018-11-06T20:50:40.770Z,87.78
2018-11-06T20:53:10.235Z,87.73
2018-11-06T20:55:38.943Z,86.68
2018-11-06T20:58:07.357Z,86.68
2018-11-06T21:00:35.904Z,87.03
2018-11-06T21:03:04.590Z,87.01
2018-11-06T21:05:33.085Z,88.19
2018-11-06T21:08:01.571Z,88.09
2018-11-06T21:10:31.051Z,88.13
2018-11-06T21:12:59.738Z,87.68
2018-11-06T21:15:28.654Z,88.22
2018-11-06T21:17:57.568Z,88.29
2018-11-06T21:20:26.093Z,87.34
2018-11-06T21:22:54.557Z,87.08
2018-11-06T21:25:23.189Z,87.38
2018-11-06T21:27:51.666Z,87.47
2018-11-06T21:30:20.901Z,87.57
2018-11-06T21:32:50.876Z,88.46
2018-11-06T21:35:19.405Z,88.73
2018-11-06T21:37:48.429Z,89.04
2018-11-06T21:40:18.359Z,89.44
2018-11-06T21:42:47.454Z,89.53
2018-11-06T21:45:16.603Z,89.50
2018-11-06T21:47:45.916Z,89.43
2018-11-06T21:50:15.321Z,89.02
2018-11-06T21:52:43.769Z,89.18
2018-11-06T21:55:13.856Z,89.83
2018-11-06T21:57:42.665Z,89.98
2018-11-06T22:00:15.556Z,89.41
2018-11-06T22:02:44.420Z,88.40
2018-11-06T22:05:14.456Z,88.47
2018-11-06T22:07:43.693Z,88.73
2018-11-06T22:10:13.396Z,89.03
2018-11-06T22:12:43.123Z,89.61
2018-11-06T22:15:12.663Z,89.44
2018-11-06T22:17:41.750Z,91.08
2018-11-06T22:20:16.645Z,91.27
2018-11-06T22:22:45.648Z,90.99
2018-11-06T22:25:14.259Z,90.90
2018-11-06T22:27:43.623Z,90.66
2018-11-06T22:30:13.517Z,90.59
2018-11-06T22:32:42.920Z,90.00
2018-11-06T22:35:12.871Z,90.73
2018-11-06T22:37:41.891Z,90.86
2018-11-06T22:40:12.151Z,91.40
2018-11-06T22:42:41.036Z,91.45
2018-11-06T22:45:12.658Z,90.77
2018-11-06T22:47:42.073Z,90.45
2018-11-06T22:50:12.142Z,90.59
2018-11-06T22:52:40.859Z,91.40
2018-11-06T22:55:09.656Z,92.22
2018-11-06T22:57:38.378Z,92.05
2018-11-06T23:00:14.468Z,92.09
2018-11-06T23:02:43.454Z,91.81
2018-11-06T23:05:12.367Z,91.15
2018-11-06T23:07:46.495Z,91.73
2018-11-06T23:10:14.931Z,91.61
2018-11-06T23:12:44.563Z,91.86
2018-11-06T23:15:13.269Z,91.64
2018-11-06T23:17:43.392Z,92.29
2018-11-06T23:20:12.076Z,93.06
2018-11-06T23:22:40.721Z,92.87
2018-11-06T23:25:09.639Z,92.44
2018-11-06T23:27:39.077Z,93.07
2018-11-06T23:30:11.081Z,92.24
2018-11-06T23:32:41.091Z,92.58
2018-11-06T23:35:10.428Z,92.49
2018-11-06T23:37:40.011Z,92.63
2018-11-06T23:40:09.441Z,93.17
2018-11-06T23:42:38.348Z,91.38
2018-11-06T23:45:07.647Z,92.34
2018-11-06T23:47:36.471Z,92.41
2018-11-06T23:50:06.417Z,93.00
2018-11-06T23:52:34.826Z,92.34
2018-11-06T23:55:03.309Z,92.08
2018-11-06T23:57:31.663Z,92.30
